Time;durP1;ratioP1;P1;durP2;ratioP2;P2;SDS_P1;SDS_P2;PMS_P1;PMS_P2;Temp;Humidity;BMP_temperature;BMP_pressure;BME280_temperature;BME280_humidity;BME280_pressure;Samples;Min_cycle;Max_cycle;Signal;HPM_P1;HPM_P2
2021/11/30 00:01:32;;;;;;;37.00;30.02;;;;;;;16.78;35.33;92763.03;5075043;28;20048;-48
2021/11/30 00:04:00;;;;;;;33.47;27.88;;;;;;;18.12;32.00;92764.34;5073799;28;20059;-46
2021/11/30 00:06:27;;;;;;;31.20;27.23;;;;;;;18.34;31.94;92765.97;5055294;28;20049;-45
2021/11/30 00:09:08;;;;;;;31.83;26.80;;;;;;;16.88;34.84;92758.94;5054128;28;20040;-44
2021/11/30 00:11:36;;;;;;;30.17;26.38;;;;;;;16.50;35.35;92758.19;5056201;28;20044;-50
2021/11/30 00:14:04;;;;;;;31.40;27.33;;;;;;;16.21;35.93;92765.03;5074696;28;20055;-45
2021/11/30 00:16:31;;;;;;;29.90;26.67;;;;;;;16.59;35.43;92761.28;5074366;28;20048;-50
2021/11/30 00:18:58;;;;;;;29.83;24.35;;;;;;;17.29;34.15;92756.28;5074659;28;20048;-52
2021/11/30 00:21:25;;;;;;;28.55;25.38;;;;;;;16.61;35.28;92761.69;5074546;28;20051;-44
2021/11/30 00:23:52;;;;;;;27.13;24.23;;;;;;;16.68;35.63;92768.22;5074393;28;20044;-47
2021/11/30 00:26:19;;;;;;;29.83;26.05;;;;;;;16.16;36.35;92751.41;5074465;28;20439;-44
2021/11/30 00:28:46;;;;;;;29.85;25.60;;;;;;;16.16;36.37;92767.25;5066462;28;20037;-46
2021/11/30 00:31:13;;;;;;;28.10;25.08;;;;;;;16.09;36.72;92767.13;5054651;28;20373;-48
2021/11/30 00:33:40;;;;;;;29.35;26.33;;;;;;;15.74;37.08;92760.31;5070555;28;20048;-46
2021/11/30 00:36:07;;;;;;;29.27;26.13;;;;;;;15.79;37.00;92765.25;5074039;28;20055;-42
2021/11/30 00:38:34;;;;;;;31.38;28.02;;;;;;;15.81;37.20;92773.56;5074289;28;20039;-48
2021/11/30 00:41:02;;;;;;;32.00;28.05;;;;;;;15.85;37.06;92768.34;5074621;28;20040;-52
2021/11/30 00:43:33;;;;;;;33.40;29.00;;;;;;;15.69;37.42;92769.28;5063017;28;20057;-53
2021/11/30 00:46:11;;;;;;;34.00;30.03;;;;;;;15.38;37.58;92772.97;5057882;28;20044;-53
2021/11/30 00:48:39;;;;;;;34.28;29.83;;;;;;;15.73;37.48;92777.22;5074208;28;20094;-51
2021/11/30 00:51:19;;;;;;;33.40;29.08;;;;;;;15.77;37.25;92774.63;5074155;28;20110;-50
2021/11/30 00:53:48;;;;;;;33.60;28.88;;;;;;;15.78;37.40;92776.91;5074070;28;20048;-44
2021/11/30 00:56:16;;;;;;;34.75;29.85;;;;;;;15.75;37.64;92774.25;5074391;28;20363;-43
2021/11/30 00:58:43;;;;;;;32.58;28.98;;;;;;;15.60;37.95;92773.28;5073962;28;20433;-48
2021/11/30 01:01:11;;;;;;;36.55;30.83;;;;;;;15.80;37.32;92772.03;5073958;28;20321;-44
2021/11/30 01:03:40;;;;;;;38.90;32.30;;;;;;;15.49;37.80;92778.38;5073237;28;20055;-46
2021/11/30 01:06:08;;;;;;;37.88;31.70;;;;;;;15.57;37.79;92773.94;5074298;28;20048;-43
2021/11/30 01:08:35;;;;;;;35.78;30.58;;;;;;;15.70;37.46;92777.94;5074001;28;20044;-50
2021/11/30 01:11:03;;;;;;;34.05;29.38;;;;;;;16.03;36.58;92780.63;5074662;28;20474;-44
2021/11/30 01:13:33;;;;;;;36.45;29.50;;;;;;;15.52;37.76;92776.91;5077138;28;20045;-47
2021/11/30 01:16:02;;;;;;;32.00;27.92;;;;;;;15.69;37.26;92771.16;5077481;28;20044;-51
2021/11/30 01:18:29;;;;;;;29.00;24.10;;;;;;;15.53;37.23;92776.53;5077981;28;20052;-45
2021/11/30 01:20:57;;;;;;;28.85;23.73;;;;;;;15.72;37.02;92768.56;5078176;28;20040;-43
2021/11/30 01:23:26;;;;;;;30.73;24.42;;;;;;;15.29;37.62;92764.53;5060395;28;20041;-43
2021/11/30 01:25:53;;;;;;;28.77;24.10;;;;;;;15.55;37.17;92760.38;5077934;28;20045;-46
2021/11/30 01:28:20;;;;;;;30.73;23.95;;;;;;;15.46;37.34;92758.00;5077226;28;20049;-47
2021/11/30 01:30:48;;;;;;;26.88;22.35;;;;;;;15.47;36.96;92753.50;5077642;28;20044;-52
2021/11/30 01:33:15;;;;;;;10.88;8.48;;;;;;;14.60;37.13;92760.41;5073628;28;20053;-45
2021/11/30 01:35:44;;;;;;;4.68;3.65;;;;;;;13.65;37.68;92767.91;5057947;28;20047;-50
2021/11/30 01:38:12;;;;;;;2.28;1.90;;;;;;;14.02;35.72;92784.81;5071831;28;20048;-43
2021/11/30 01:40:40;;;;;;;2.22;1.63;;;;;;;13.72;35.75;92765.44;5060571;28;20316;-48
2021/11/30 01:43:09;;;;;;;1.63;1.15;;;;;;;13.58;35.76;92785.03;5077998;28;20052;-50
2021/11/30 01:50:37;;;;;;;0.73;0.40;;;;;;;12.76;36.45;92786.84;5057544;28;20048;-43
2021/11/30 01:53:05;;;;;;;1.38;0.50;;;;;;;12.66;37.00;92790.69;5060807;28;20110;-42
2021/11/30 01:55:33;;;;;;;1.10;0.60;;;;;;;12.57;37.06;92790.84;5075874;28;20052;-49
2021/11/30 01:58:00;;;;;;;2.10;0.40;;;;;;;12.54;37.14;92794.16;5076678;28;20688;-48
2021/11/30 02:00:28;;;;;;;6.05;0.60;;;;;;;11.92;38.15;92792.09;5075497;28;20370;-51
2021/11/30 02:02:56;;;;;;;1.27;0.30;;;;;;;12.06;38.10;92795.13;5077260;28;20048;-54
2021/11/30 02:05:23;;;;;;;0.77;0.40;;;;;;;12.56;37.59;92796.44;5062355;28;20060;-54
2021/11/30 02:07:50;;;;;;;0.82;0.35;;;;;;;12.44;37.19;92799.09;5066744;28;20371;-55
2021/11/30 02:10:18;;;;;;;0.40;0.30;;;;;;;12.27;37.71;92794.94;5076576;28;20459;-43
2021/11/30 02:12:46;;;;;;;0.52;0.30;;;;;;;11.74;38.62;92810.66;5077032;28;20040;-43
2021/11/30 02:15:13;;;;;;;1.20;0.50;;;;;;;12.31;37.68;92799.16;5059458;28;20463;-43
2021/11/30 02:17:41;;;;;;;1.27;0.40;;;;;;;12.15;37.73;92803.59;5076236;28;20060;-52
2021/11/30 02:20:09;;;;;;;1.58;0.50;;;;;;;12.40;37.64;92819.97;5077031;28;20067;-52
2021/11/30 02:22:37;;;;;;;0.45;0.30;;;;;;;12.61;36.79;92806.69;5075880;28;20056;-45
2021/11/30 02:25:05;;;;;;;4.03;0.57;;;;;;;12.58;37.14;92821.22;5076696;28;20378;-42
2021/11/30 02:27:32;;;;;;;1.17;0.50;;;;;;;12.10;37.66;92829.25;5058874;28;20455;-55
2021/11/30 02:29:59;;;;;;;2.25;0.40;;;;;;;12.59;36.83;92827.97;5076774;28;20056;-44
2021/11/30 02:32:27;;;;;;;0.80;0.40;;;;;;;12.32;37.24;92828.75;5076660;28;20447;-52
2021/11/30 02:34:54;;;;;;;4.18;0.65;;;;;;;13.03;36.49;92841.09;5076807;28;20044;-45
2021/11/30 02:37:26;;;;;;;0.60;0.40;;;;;;;12.50;37.07;92845.72;5076495;28;20041;-42
2021/11/30 02:39:54;;;;;;;0.80;0.40;;;;;;;12.71;36.44;92842.88;5058482;28;20048;-45
2021/11/30 02:42:21;;;;;;;0.93;0.50;;;;;;;12.47;36.75;92858.72;5070347;28;20059;-42
2021/11/30 02:44:48;;;;;;;0.60;0.30;;;;;;;12.78;36.16;92856.19;5075664;28;20569;-51
2021/11/30 02:47:15;;;;;;;0.63;0.40;;;;;;;12.76;36.15;92847.91;5075917;28;20060;-44
2021/11/30 02:49:44;;;;;;;1.15;0.40;;;;;;;12.52;36.32;92854.03;5075900;28;20052;-48
2021/11/30 02:52:14;;;;;;;1.60;0.50;;;;;;;12.87;36.44;92858.66;5076669;28;20048;-53
2021/11/30 02:54:43;;;;;;;0.73;0.43;;;;;;;12.85;36.05;92874.72;5075659;28;20048;-46
2021/11/30 02:57:13;;;;;;;1.30;0.50;;;;;;;13.92;33.85;92874.69;5075259;28;20049;-49
2021/11/30 02:59:43;;;;;;;0.73;0.40;;;;;;;12.53;36.67;92876.50;5056163;28;20045;-48
2021/11/30 03:02:30;;;;;;;0.98;0.40;;;;;;;12.79;36.14;92873.47;5067549;28;20052;-44
2021/11/30 03:04:59;;;;;;;2.92;0.43;;;;;;;12.66;36.12;92885.06;5076057;28;20047;-52
2021/11/30 03:07:30;;;;;;;1.13;0.50;;;;;;;12.48;36.82;92887.22;5076004;28;20045;-49
2021/11/30 03:09:57;;;;;;;0.50;0.30;;;;;;;12.32;37.28;92902.13;5075182;28;20036;-52
2021/11/30 03:12:24;;;;;;;1.20;0.50;;;;;;;12.43;36.93;92905.03;5075858;28;20048;-52
2021/11/30 03:14:52;;;;;;;1.50;0.60;;;;;;;12.55;36.50;92900.53;5075304;28;20063;-44
2021/11/30 03:17:19;;;;;;;0.80;0.43;;;;;;;12.25;36.96;92902.69;5075371;28;20362;-46
2021/11/30 03:19:46;;;;;;;1.25;0.50;;;;;;;12.51;36.66;92904.16;5074908;28;20049;-51
2021/11/30 03:22:13;;;;;;;1.45;0.60;;;;;;;13.04;36.10;92916.06;5075814;28;20458;-46
2021/11/30 03:24:41;;;;;;;1.10;0.50;;;;;;;12.74;35.74;92902.53;5075738;28;20066;-50
2021/11/30 03:27:08;;;;;;;1.02;0.43;;;;;;;12.62;36.12;92908.59;5075128;28;20779;-55
2021/11/30 03:29:35;;;;;;;0.70;0.38;;;;;;;12.49;36.24;92916.81;5075829;28;20044;-51
2021/11/30 03:34:35;;;;;;;1.40;0.50;;;;;;;12.81;35.94;92921.09;5075293;28;20074;-47
2021/11/30 03:37:04;;;;;;;3.28;0.75;;;;;;;13.18;35.51;92923.56;5075116;28;20055;-56
2021/11/30 03:39:31;;;;;;;0.85;0.50;;;;;;;12.76;35.47;92921.31;5075516;28;20048;-56
2021/11/30 03:41:59;;;;;;;2.65;0.60;;;;;;;12.65;35.81;92933.38;5075112;28;20052;-45
2021/11/30 03:44:27;;;;;;;0.95;0.55;;;;;;;12.59;35.82;92945.19;5074610;28;20060;-43
2021/11/30 03:46:55;;;;;;;1.00;0.70;;;;;;;12.50;36.01;92926.22;5074544;28;20048;-44
2021/11/30 03:49:22;;;;;;;1.08;0.77;;;;;;;13.86;33.76;92931.97;5072872;28;20052;-42
2021/11/30 03:51:50;;;;;;;0.98;0.70;;;;;;;12.81;35.14;92934.19;5062223;28;20048;-44
2021/11/30 03:54:18;;;;;;;0.73;0.50;;;;;;;12.66;35.45;92940.13;5075177;28;20074;-49
2021/11/30 03:56:47;;;;;;;1.10;0.60;;;;;;;12.56;35.49;92949.25;5060544;28;20055;-45
2021/11/30 03:59:15;;;;;;;1.80;0.70;;;;;;;12.77;35.00;92956.94;5055500;28;20055;-48
2021/11/30 04:01:42;;;;;;;1.02;0.70;;;;;;;12.76;35.39;92960.66;5060707;28;20044;-52
2021/11/30 04:04:19;;;;;;;1.13;0.70;;;;;;;12.26;36.18;92955.84;5074555;28;20052;-43
2021/11/30 04:06:48;;;;;;;7.25;0.70;;;;;;;12.47;35.73;92958.31;5074096;28;20056;-44
2021/11/30 04:09:16;;;;;;;1.17;0.80;;;;;;;12.35;36.05;92970.34;5055374;28;20048;-52
2021/11/30 04:11:44;;;;;;;1.10;0.77;;;;;;;12.26;36.02;92977.59;5074645;28;20052;-53
2021/11/30 04:14:11;;;;;;;1.13;0.90;;;;;;;12.54;35.65;92979.50;5073852;28;20045;-47
2021/11/30 04:16:38;;;;;;;1.20;0.90;;;;;;;12.71;35.01;92981.84;5073671;28;20063;-52
2021/11/30 04:19:06;;;;;;;0.90;0.80;;;;;;;12.72;35.50;92985.25;5075073;28;20055;-53
2021/11/30 04:21:33;;;;;;;0.90;0.65;;;;;;;12.45;35.76;93000.59;5074450;28;20052;-52
2021/11/30 04:24:00;;;;;;;1.42;1.10;;;;;;;12.55;35.55;93000.16;5074557;28;20063;-46
2021/11/30 04:26:28;;;;;;;1.15;0.80;;;;;;;12.38;36.03;93004.84;5074550;28;20059;-44
2021/11/30 04:28:55;;;;;;;3.17;0.70;;;;;;;12.57;35.39;93018.94;5073928;28;20390;-51
2021/11/30 04:31:23;;;;;;;2.10;0.90;;;;;;;12.51;35.84;93009.78;5074378;28;20111;-45
2021/11/30 04:33:50;;;;;;;1.20;0.90;;;;;;;12.37;35.39;93021.69;5073915;28;20048;-44
2021/11/30 04:36:17;;;;;;;1.00;0.70;;;;;;;12.81;35.43;93028.59;5074379;28;20055;-45
2021/11/30 04:38:44;;;;;;;1.70;0.90;;;;;;;12.67;34.82;93022.94;5073783;28;20056;-46
2021/11/30 04:41:11;;;;;;;1.50;0.95;;;;;;;12.74;34.83;93025.75;5073450;28;20045;-51
2021/11/30 04:43:38;;;;;;;3.17;1.13;;;;;;;12.80;34.77;93032.31;5074480;28;20465;-44
2021/11/30 04:46:20;;;;;;;4.03;2.00;;;;;;;12.77;34.86;93043.47;5072969;28;20049;-47
2021/11/30 04:49:12;;;;;;;2.13;1.33;;;;;;;13.14;33.79;93040.75;5059718;28;20056;-45
2021/11/30 04:51:38;;;;;;;2.08;1.52;;;;;;;13.24;33.79;93050.78;5056910;28;20079;-45
2021/11/30 04:54:05;;;;;;;4.78;1.75;;;;;;;13.26;33.74;93049.34;5055751;28;20056;-47
2021/11/30 04:56:32;;;;;;;2.58;1.40;;;;;;;13.69;32.45;93052.34;5065568;28;20044;-51
2021/11/30 04:58:59;;;;;;;3.97;1.50;;;;;;;13.60;32.48;93070.13;5069249;28;20048;-44
2021/11/30 05:01:26;;;;;;;1.52;1.25;;;;;;;13.53;32.25;93071.47;5055910;28;20057;-49
2021/11/30 05:03:53;;;;;;;2.03;1.42;;;;;;;13.46;32.25;93089.66;5074034;28;20055;-54
2021/11/30 05:06:20;;;;;;;1.77;1.40;;;;;;;13.46;32.25;93092.28;5056836;28;20075;-51
2021/11/30 05:08:47;;;;;;;1.80;1.50;;;;;;;13.53;31.77;93100.38;5074406;28;20056;-43
2021/11/30 05:11:14;;;;;;;2.25;1.60;;;;;;;13.82;31.09;93095.84;5074535;28;20051;-45
2021/11/30 05:13:41;;;;;;;1.90;1.70;;;;;;;14.14;30.13;93110.56;5074304;28;20370;-49
2021/11/30 05:16:08;;;;;;;1.90;1.60;;;;;;;14.68;29.18;93114.50;5071690;28;20052;-52
2021/11/30 05:18:35;;;;;;;2.00;1.80;;;;;;;14.48;29.24;93121.53;5073412;28;20366;-43
2021/11/30 05:21:02;;;;;;;2.53;1.90;;;;;;;14.55;29.62;93119.06;5064515;28;20055;-44
2021/11/30 05:23:30;;;;;;;2.45;2.20;;;;;;;14.89;28.12;93125.50;5071123;28;20056;-42
2021/11/30 05:26:05;;;;;;;4.30;2.15;;;;;;;15.16;27.85;93128.31;5068031;28;20061;-46
2021/11/30 05:28:34;;;;;;;2.80;2.13;;;;;;;15.17;27.57;93141.13;5058310;28;20056;-47
2021/11/30 05:31:03;;;;;;;7.05;2.80;;;;;;;14.81;28.17;93147.47;5063195;28;20041;-47
2021/11/30 05:33:30;;;;;;;2.75;2.15;;;;;;;15.16;27.82;93144.13;5070290;28;20355;-44
2021/11/30 05:35:58;;;;;;;2.88;2.30;;;;;;;14.38;28.68;93145.69;5062265;28;20053;-45
2021/11/30 05:38:26;;;;;;;2.55;2.22;;;;;;;14.60;28.86;93166.16;5054099;28;20048;-41
2021/11/30 05:40:53;;;;;;;2.83;2.40;;;;;;;14.43;28.67;93166.50;5053916;28;20059;-48
2021/11/30 05:43:20;;;;;;;2.90;2.47;;;;;;;14.46;28.46;93163.19;5069504;28;20056;-59
2021/11/30 05:45:47;;;;;;;7.47;2.28;;;;;;;14.50;28.52;93171.91;5072069;28;20055;-43
2021/11/30 05:48:15;;;;;;;3.05;2.60;;;;;;;14.43;28.85;93180.41;5074319;28;20055;-54
2021/11/30 05:50:42;;;;;;;2.92;2.33;;;;;;;14.03;29.64;93185.72;5073929;28;20049;-43
2021/11/30 05:53:10;;;;;;;3.10;2.15;;;;;;;13.69;29.69;93186.28;5062517;28;20044;-46
2021/11/30 05:55:37;;;;;;;3.60;2.47;;;;;;;13.83;29.42;93190.09;5074002;28;20040;-42
2021/11/30 05:58:05;;;;;;;3.25;2.15;;;;;;;13.87;29.23;93193.56;5057935;28;20359;-42
2021/11/30 06:00:33;;;;;;;2.70;2.10;;;;;;;13.95;29.37;93194.53;5077476;28;20355;-42
2021/11/30 06:03:19;;;;;;;2.67;2.22;;;;;;;13.93;28.75;93207.22;5076206;28;20044;-46
2021/11/30 06:05:47;;;;;;;3.70;2.38;;;;;;;14.29;28.52;93208.16;5062445;28;20056;-43
2021/11/30 06:08:14;;;;;;;3.75;2.67;;;;;;;14.09;28.52;93215.16;5077436;28;20044;-49
2021/11/30 06:10:41;;;;;;;2.50;2.20;;;;;;;14.12;28.87;93220.50;5077307;28;20052;-43
2021/11/30 06:13:08;;;;;;;5.28;2.70;;;;;;;14.06;28.97;93248.13;5076439;28;20060;-44
2021/11/30 06:15:35;;;;;;;2.75;2.42;;;;;;;14.14;28.74;93249.84;5076748;28;20049;-44
2021/11/30 06:18:02;;;;;;;4.28;2.90;;;;;;;13.99;28.82;93262.94;5076982;28;20482;-44
2021/11/30 06:20:30;;;;;;;3.60;2.70;;;;;;;14.00;28.87;93265.22;5077311;28;20048;-44
2021/11/30 06:22:57;;;;;;;3.75;2.53;;;;;;;13.89;28.51;93269.41;5077117;28;20050;-42
2021/11/30 06:25:24;;;;;;;3.13;2.35;;;;;;;13.88;28.72;93268.66;5076654;28;20048;-44
2021/11/30 06:27:51;;;;;;;4.15;2.90;;;;;;;13.85;28.72;93273.81;5076880;28;20470;-55
2021/11/30 06:30:18;;;;;;;2.78;2.33;;;;;;;13.79;28.56;93273.28;5077020;28;20435;-48
2021/11/30 06:32:45;;;;;;;3.85;2.97;;;;;;;14.55;27.55;93282.13;5075976;28;20060;-50
2021/11/30 06:35:13;;;;;;;2.95;2.53;;;;;;;13.66;28.70;93286.75;5076605;28;20044;-51
2021/11/30 06:37:40;;;;;;;4.55;2.97;;;;;;;13.53;29.01;93292.03;5070951;28;20045;-53
2021/11/30 06:40:08;;;;;;;3.60;2.85;;;;;;;13.75;29.01;93290.00;5056642;28;20053;-57
2021/11/30 06:42:35;;;;;;;3.63;3.28;;;;;;;13.91;28.41;93295.34;5064546;28;20051;-50
2021/11/30 06:45:02;;;;;;;3.15;2.83;;;;;;;13.53;28.93;93309.63;5075567;28;20055;-53
2021/11/30 06:47:31;;;;;;;3.70;3.30;;;;;;;13.53;29.41;93318.28;5075326;28;20065;-57
2021/11/30 06:49:58;;;;;;;5.47;3.30;;;;;;;13.61;29.08;93321.13;5058558;28;20048;-53
2021/11/30 06:52:25;;;;;;;5.43;3.20;;;;;;;13.98;28.22;93330.47;5075596;28;20078;-54
2021/11/30 06:54:54;;;;;;;4.47;3.58;;;;;;;13.50;29.33;93331.28;5075994;28;20048;-48
2021/11/30 06:57:22;;;;;;;4.95;3.20;;;;;;;13.60;29.38;93338.75;5058997;28;20052;-55
2021/11/30 06:59:50;;;;;;;4.88;3.55;;;;;;;13.38;30.15;93345.19;5076456;28;20067;-55
2021/11/30 07:02:18;;;;;;;7.70;3.80;;;;;;;13.38;29.56;93339.19;5076507;28;20068;-55
2021/11/30 07:04:48;;;;;;;4.18;3.22;;;;;;;13.68;29.12;93347.59;5075955;28;20048;-55
2021/11/30 07:15:06;;;;;;;5.13;4.18;;;;;;;13.20;29.35;93359.59;5075707;28;20049;-56
2021/11/30 07:17:33;;;;;;;5.75;4.57;;;;;;;13.31;29.49;93368.59;5075315;28;20056;-58
2021/11/30 07:20:00;;;;;;;5.25;4.03;;;;;;;13.42;28.70;93372.31;5075792;28;20053;-53
2021/11/30 07:22:28;;;;;;;6.15;4.13;;;;;;;14.23;27.68;93383.75;5075766;28;20059;-54
2021/11/30 07:24:55;;;;;;;4.78;3.92;;;;;;;13.47;28.63;93387.84;5074788;28;20382;-51
2021/11/30 07:27:22;;;;;;;5.38;4.03;;;;;;;13.42;29.00;93388.06;5075821;28;20478;-55
2021/11/30 07:29:49;;;;;;;5.40;4.32;;;;;;;13.08;29.27;93401.53;5075611;28;20052;-55
2021/11/30 07:32:16;;;;;;;4.97;4.13;;;;;;;13.32;28.48;93404.25;5075573;28;20053;-54
2021/11/30 07:34:44;;;;;;;5.00;4.40;;;;;;;13.68;28.33;93410.63;5074759;28;20425;-48
2021/11/30 07:37:11;;;;;;;8.10;4.30;;;;;;;13.48;28.54;93413.00;5075159;28;20055;-51
2021/11/30 07:39:38;;;;;;;4.40;3.95;;;;;;;13.12;28.98;93431.28;5074517;28;20052;-54
2021/11/30 07:42:06;;;;;;;4.05;3.65;;;;;;;13.08;29.25;93440.91;5075123;28;20741;-52
2021/11/30 07:44:33;;;;;;;5.13;4.30;;;;;;;12.97;29.24;93440.53;5057405;28;20055;-55
2021/11/30 07:47:00;;;;;;;5.20;4.60;;;;;;;13.11;29.49;93435.78;5074986;28;20055;-54
2021/11/30 07:49:28;;;;;;;6.88;5.13;;;;;;;13.20;29.20;93451.44;5075144;28;20056;-51
2021/11/30 07:51:55;;;;;;;5.50;4.80;;;;;;;13.10;29.53;93454.47;5074125;28;20055;-53
2021/11/30 07:54:22;;;;;;;5.57;4.97;;;;;;;13.09;29.43;93463.44;5072875;28;20051;-50
2021/11/30 07:56:50;;;;;;;7.00;5.80;;;;;;;13.14;29.66;93460.59;5075235;28;20044;-52
2021/11/30 07:59:19;;;;;;;5.75;5.15;;;;;;;13.02;29.38;93463.97;5074911;28;20053;-52
2021/11/30 08:01:46;;;;;;;6.38;5.50;;;;;;;13.36;29.04;93468.13;5075037;28;20059;-52
2021/11/30 08:04:13;;;;;;;7.55;6.15;;;;;;;12.92;29.97;93486.09;5074688;28;20044;-52
2021/11/30 08:06:40;;;;;;;8.80;6.80;;;;;;;12.76;29.97;93487.78;5074109;28;20056;-53
2021/11/30 08:09:10;;;;;;;8.68;7.03;;;;;;;13.20;29.28;93485.56;5064028;28;20036;-49
2021/11/30 08:11:37;;;;;;;7.78;6.97;;;;;;;13.16;29.57;93492.53;5075099;28;20049;-55
2021/11/30 08:14:04;;;;;;;7.75;6.40;;;;;;;13.11;29.27;93503.22;5073636;28;20055;-50
2021/11/30 08:16:31;;;;;;;7.95;6.82;;;;;;;12.93;29.77;93502.59;5074266;28;20056;-52
2021/11/30 08:18:58;;;;;;;7.55;6.47;;;;;;;13.02;29.41;93502.53;5073569;28;20067;-55
2021/11/30 08:21:26;;;;;;;9.77;6.30;;;;;;;13.09;29.33;93521.16;5073806;28;20060;-54
2021/11/30 08:23:53;;;;;;;8.18;6.75;;;;;;;13.30;29.15;93529.03;5063927;28;20073;-55
2021/11/30 08:26:20;;;;;;;6.97;6.28;;;;;;;12.97;29.55;93535.72;5054630;28;20045;-55
2021/11/30 08:28:47;;;;;;;7.35;6.65;;;;;;;12.94;29.68;93530.38;5056950;28;20463;-56
2021/11/30 08:31:17;;;;;;;8.15;6.90;;;;;;;13.17;29.48;93525.56;5067591;28;20044;-53
2021/11/30 08:33:44;;;;;;;7.47;6.18;;;;;;;12.76;30.13;93531.59;5068248;28;20435;-53
2021/11/30 08:36:11;;;;;;;8.30;6.82;;;;;;;13.19;29.20;93542.53;5074693;28;20048;-52
2021/11/30 08:38:39;;;;;;;10.65;8.15;;;;;;;12.83;29.65;93555.44;5073644;28;20048;-53
2021/11/30 08:41:06;;;;;;;8.60;7.30;;;;;;;13.11;29.43;93545.22;5074717;28;20056;-51
2021/11/30 08:43:33;;;;;;;7.70;6.45;;;;;;;12.95;29.40;93543.16;5074304;28;20055;-56
2021/11/30 08:46:00;;;;;;;7.78;6.97;;;;;;;12.85;29.78;93548.03;5073889;28;20556;-52
2021/11/30 08:48:28;;;;;;;8.05;7.25;;;;;;;12.93;29.38;93550.59;5074895;28;20056;-52
2021/11/30 08:50:56;;;;;;;8.93;7.07;;;;;;;12.98;29.39;93558.25;5074654;28;20044;-51
2021/11/30 08:53:25;;;;;;;8.30;6.70;;;;;;;12.64;29.77;93558.50;5074312;28;20044;-53
2021/11/30 08:55:52;;;;;;;8.23;7.03;;;;;;;12.86;29.38;93565.31;5074547;28;20052;-53
2021/11/30 08:58:19;;;;;;;7.15;5.95;;;;;;;13.98;27.51;93572.22;5074570;28;20053;-53
2021/11/30 09:00:50;;;;;;;7.30;5.93;;;;;;;12.87;28.92;93562.34;5073479;28;20052;-55
2021/11/30 09:03:18;;;;;;;7.35;6.57;;;;;;;13.24;28.16;93570.44;5074221;28;20489;-54
2021/11/30 09:05:47;;;;;;;6.95;6.25;;;;;;;13.12;28.53;93579.00;5074216;28;20052;-53
2021/11/30 09:08:15;;;;;;;11.13;6.22;;;;;;;13.01;29.58;93582.31;5074282;28;20052;-52
2021/11/30 09:10:43;;;;;;;6.25;5.55;;;;;;;12.53;29.72;93588.78;5074091;28;20041;-55
2021/11/30 09:13:10;;;;;;;6.50;5.80;;;;;;;12.58;29.53;93580.75;5073799;28;20439;-45
2021/11/30 09:15:38;;;;;;;6.53;5.57;;;;;;;12.48;29.74;93607.31;5074054;28;20059;-52
2021/11/30 09:18:05;;;;;;;7.90;6.30;;;;;;;12.57;29.95;93603.56;5056929;28;20061;-55
2021/11/30 09:20:36;;;;;;;7.25;5.78;;;;;;;12.61;29.18;93619.44;5069916;28;20059;-54
2021/11/30 09:23:06;;;;;;;6.65;5.63;;;;;;;13.12;28.82;93614.97;5073297;28;20063;-53
2021/11/30 09:25:33;;;;;;;6.50;5.78;;;;;;;12.58;29.20;93609.59;5073652;28;20044;-53
2021/11/30 09:28:02;;;;;;;6.95;5.03;;;;;;;12.81;28.90;93610.09;5073953;28;20051;-56
2021/11/30 09:30:29;;;;;;;6.20;5.40;;;;;;;12.73;29.55;93605.63;5073897;28;20052;-53
2021/11/30 09:32:56;;;;;;;5.57;4.97;;;;;;;12.59;29.68;93616.38;5075708;28;20051;-50
2021/11/30 09:35:25;;;;;;;5.53;4.90;;;;;;;12.66;29.57;93627.88;5077732;28;20048;-54
2021/11/30 09:37:54;;;;;;;5.65;5.00;;;;;;;12.69;29.49;93618.63;5077331;28;20051;-53
2021/11/30 09:40:24;;;;;;;6.72;5.50;;;;;;;12.69;29.02;93628.34;5077024;28;20045;-52
2021/11/30 09:42:54;;;;;;;6.25;5.38;;;;;;;12.81;29.09;93621.34;5077719;28;20453;-54
2021/11/30 09:45:24;;;;;;;6.07;5.00;;;;;;;13.66;27.81;93622.94;5074272;28;20048;-52
2021/11/30 09:47:52;;;;;;;5.53;4.97;;;;;;;12.89;27.77;93628.38;5076359;28;20052;-52
2021/11/30 09:50:21;;;;;;;7.60;5.43;;;;;;;13.07;28.36;93630.91;5077455;28;20053;-52
2021/11/30 09:52:56;;;;;;;5.78;5.18;;;;;;;12.83;28.44;93639.38;5077608;28;20059;-49
2021/11/30 09:55:24;;;;;;;6.53;5.30;;;;;;;13.30;27.54;93647.16;5077341;28;20056;-52
2021/11/30 09:57:53;;;;;;;5.13;4.63;;;;;;;13.56;26.86;93640.63;5077424;28;20044;-53
2021/11/30 10:00:24;;;;;;;7.60;5.28;;;;;;;12.86;28.46;93650.00;5076497;28;20051;-50
2021/11/30 10:02:54;;;;;;;5.88;5.28;;;;;;;12.63;29.07;93646.13;5077268;28;20051;-54
2021/11/30 10:05:21;;;;;;;7.25;5.45;;;;;;;12.81;28.64;93647.56;5077195;28;20044;-52
2021/11/30 10:07:51;;;;;;;5.90;5.30;;;;;;;12.79;28.63;93649.75;5077372;28;20052;-52
2021/11/30 10:10:25;;;;;;;5.18;4.68;;;;;;;12.50;28.86;93649.72;5075729;28;20060;-54
2021/11/30 10:13:10;;;;;;;6.40;4.90;;;;;;;12.46;28.52;93661.91;5076823;28;20055;-52
2021/11/30 10:15:45;;;;;;;5.55;4.93;;;;;;;12.48;28.54;93654.50;5076329;28;20362;-53
2021/11/30 10:18:23;;;;;;;6.55;5.55;;;;;;;12.49;28.67;93661.28;5076357;28;20056;-55
2021/11/30 10:20:57;;;;;;;6.13;5.40;;;;;;;12.89;27.92;93659.09;5076437;28;20052;-55
2021/11/30 10:23:25;;;;;;;6.10;4.65;;;;;;;12.68;27.68;93679.25;5077106;28;20040;-53
2021/11/30 10:25:53;;;;;;;6.10;5.03;;;;;;;12.65;27.96;93654.44;5076686;28;20358;-54
2021/11/30 10:28:27;;;;;;;8.35;5.40;;;;;;;12.39;28.50;93666.88;5077055;28;20044;-52
2021/11/30 10:30:55;;;;;;;5.43;4.82;;;;;;;12.38;29.05;93678.44;5076729;28;20462;-53
2021/11/30 10:33:26;;;;;;;5.82;5.22;;;;;;;12.25;29.06;93667.84;5076878;28;20049;-53
2021/11/30 10:35:57;;;;;;;5.63;5.03;;;;;;;12.54;28.40;93663.75;5071306;28;20466;-53
2021/11/30 10:38:39;;;;;;;5.90;5.03;;;;;;;12.32;28.70;93678.63;5076228;28;20044;-54
2021/11/30 10:41:26;;;;;;;6.80;5.47;;;;;;;12.43;29.26;93678.25;5075460;28;20127;-51
2021/11/30 10:44:03;;;;;;;6.55;5.70;;;;;;;12.31;29.12;93686.78;5075384;28;20052;-53
2021/11/30 10:46:34;;;;;;;6.35;5.43;;;;;;;12.54;28.91;93679.47;5075913;28;20056;-52
2021/11/30 10:49:02;;;;;;;7.78;5.88;;;;;;;12.88;28.25;93684.56;5075769;28;20366;-56
2021/11/30 10:51:42;;;;;;;6.18;5.57;;;;;;;12.78;28.51;93690.19;5075579;28;20278;-52
2021/11/30 10:54:10;;;;;;;7.03;6.10;;;;;;;13.44;29.00;93685.19;5070594;28;20045;-52
2021/11/30 10:56:41;;;;;;;6.20;5.60;;;;;;;13.32;28.91;93681.72;5075032;28;20070;-52
2021/11/30 10:59:08;;;;;;;11.05;8.38;;;;;;;13.10;28.42;93685.38;5057472;28;20363;-52
2021/11/30 11:01:42;;;;;;;6.57;5.97;;;;;;;12.89;29.16;93675.59;5058268;28;20083;-52
2021/11/30 11:04:12;;;;;;;7.18;6.40;;;;;;;12.12;29.96;93676.66;5056035;28;20048;-52
2021/11/30 11:06:40;;;;;;;7.93;6.03;;;;;;;12.47;29.12;93679.16;5057192;28;20052;-56
2021/11/30 11:09:10;;;;;;;6.63;5.90;;;;;;;12.04;29.90;93674.81;5057401;28;20048;-54
2021/11/30 11:11:38;;;;;;;6.35;5.75;;;;;;;12.45;28.88;93687.34;5075884;28;20048;-54
2021/11/30 11:14:21;;;;;;;6.00;5.30;;;;;;;12.45;28.90;93686.56;5073395;28;20059;-54
2021/11/30 11:16:51;;;;;;;6.30;5.60;;;;;;;12.62;29.16;93686.53;5071721;28;20061;-54
2021/11/30 11:19:43;;;;;;;6.43;5.82;;;;;;;12.34;29.59;93702.66;5040702;28;20056;-53
2021/11/30 11:22:18;;;;;;;7.18;6.43;;;;;;;11.88;30.66;93699.94;5074793;28;20052;-51
2021/11/30 11:24:50;;;;;;;6.20;5.60;;;;;;;12.37;29.65;93700.50;5075655;28;20079;-55
2021/11/30 11:27:39;;;;;;;8.10;5.47;;;;;;;11.78;30.21;93695.00;5076082;28;20044;-53
2021/11/30 11:30:12;;;;;;;6.35;5.65;;;;;;;11.65;30.68;93707.94;5070289;28;20290;-61
2021/11/30 11:32:41;;;;;;;6.38;5.60;;;;;;;11.81;30.01;93710.13;5075659;28;20052;-56
2021/11/30 11:35:10;;;;;;;7.57;5.65;;;;;;;11.79;30.10;93707.06;5075485;28;20059;-51
2021/11/30 11:37:38;;;;;;;5.80;5.20;;;;;;;11.63;30.12;93710.09;5075764;28;20052;-53
2021/11/30 11:40:09;;;;;;;8.27;5.22;;;;;;;11.26;30.68;93721.16;5075348;28;20048;-56
2021/11/30 11:42:37;;;;;;;6.30;5.63;;;;;;;11.12;30.96;93710.78;5056934;28;20048;-54
2021/11/30 11:45:07;;;;;;;6.72;5.45;;;;;;;11.37;30.07;93722.38;5075219;28;20055;-55
2021/11/30 11:47:34;;;;;;;11.60;8.75;;;;;;;11.25;30.66;93730.06;5062790;28;20053;-49
2021/11/30 11:50:13;;;;;;;6.45;5.45;;;;;;;11.71;29.55;93725.06;5042178;28;20451;-51
2021/11/30 11:52:41;;;;;;;6.05;5.45;;;;;;;11.30;30.25;93729.94;5055314;28;20045;-52
2021/11/30 11:55:13;;;;;;;6.07;5.00;;;;;;;11.35;29.92;93724.53;5057380;28;20056;-56